PWSweather.com
Personal Weather Stations
Station Observations
KCTCOLEB1
Sandy Brook, Colebrook, CT 06021

Sandy BrookColebrook, CT 06021

Lat: 42.0018, Lon: -73.0825

Elevation: 935

Station Type: Davis Vantage Pro2 + Solar + UV

Latest ConditionsUpdated 8:00:01 AM EDT Sunday, Apr 23, 2017
Currently Today's Max Today's Min Today's Average
Temperature 34.8°F1.6°C 42.9°F6.1°C 32.6°F0.3°C 37.3°F2.9°C
Dew Point 34.0°F1.1°C 41.0°F5.0°C 31.3°F-0.4°C 35.6°F2.0°C
Winds Calm Calm Calm NNWCalm NNW - Calm Calm
Wind Gusts -- -- - -
Humidity 97% 97% 92% 94%
Pressure 30.09 in1019.0 mb 30.09 in1019.0 mb 29.98 in1015.2 mb -
Hour Temp Dew Point Humidity Winds Wind Gusts Pressure Precip Precip Rate Daily Precip Total
08:00 AM 34.8°F1.6°C 34.0°F1.1°C 97% Calm Calm -- 30.09 in1019.0 mb - 0.00 in0.0 mm 0.00 in0.0 mm
07:50 AM 33.7°F0.9°C 32.9°F0.5°C 97% Calm Calm -- 30.09 in1019.0 mb - 0.00 in0.0 mm 0.00 in0.0 mm
07:40 AM 33.2°F0.7°C 32.2°F0.1°C 96% Calm Calm -- 30.09 in1019.0 mb - 0.00 in0.0 mm 0.00 in0.0 mm
07:30 AM 32.8°F0.4°C 31.8°F-0.1°C 96% Calm Calm -- 30.09 in1019.0 mb - 0.00 in0.0 mm 0.00 in0.0 mm
07:20 AM 32.6°F0.3°C 31.3°F-0.4°C 95% Calm Calm -- 30.09 in1019.0 mb - 0.00 in0.0 mm 0.00 in0.0 mm
07:10 AM 32.6°F0.3°C 31.3°F-0.4°C 95% Calm Calm -- 30.08 in1018.6 mb - 0.00 in0.0 mm 0.00 in0.0 mm
07:00 AM 32.7°F0.4°C 31.4°F-0.3°C 95% Calm Calm -- 30.08 in1018.6 mb - 0.00 in0.0 mm 0.00 in0.0 mm
06:50 AM 32.7°F0.4°C 31.4°F-0.3°C 95% Calm Calm -- 30.07 in1018.3 mb - 0.00 in0.0 mm 0.00 in0.0 mm
06:40 AM 32.8°F0.4°C 31.5°F-0.3°C 95% Calm Calm -- 30.07 in1018.3 mb - 0.00 in0.0 mm 0.00 in0.0 mm
06:30 AM 33.0°F0.6°C 31.7°F-0.2°C 95% Calm Calm -- 30.06 in1017.9 mb - 0.00 in0.0 mm 0.00 in0.0 mm
06:20 AM 33.1°F0.6°C 31.9°F-0.1°C 95% Calm Calm -- 30.05 in1017.6 mb - 0.00 in0.0 mm 0.00 in0.0 mm
06:10 AM 33.3°F0.7°C 32.0°F0.0°C 95% Calm Calm -- 30.05 in1017.6 mb - 0.00 in0.0 mm 0.00 in0.0 mm
06:00 AM 33.5°F0.8°C 32.2°F0.1°C 95% Calm Calm -- 30.04 in1017.3 mb - 0.00 in0.0 mm 0.00 in0.0 mm
05:50 AM 33.7°F0.9°C 32.2°F0.1°C 94% Calm Calm -- 30.04 in1017.3 mb - 0.00 in0.0 mm 0.00 in0.0 mm
05:40 AM 33.9°F1.1°C 32.4°F0.2°C 94% Calm Calm -- 30.04 in1017.3 mb - 0.00 in0.0 mm 0.00 in0.0 mm
05:30 AM 34.2°F1.2°C 32.6°F0.3°C 94% Calm Calm -- 30.04 in1017.3 mb - 0.00 in0.0 mm 0.00 in0.0 mm
05:20 AM 34.4°F1.3°C 32.9°F0.5°C 94% Calm Calm -- 30.04 in1017.3 mb - 0.00 in0.0 mm 0.00 in0.0 mm
05:10 AM 34.6°F1.4°C 33.1°F0.6°C 94% Calm Calm -- 30.04 in1017.3 mb - 0.00 in0.0 mm 0.00 in0.0 mm
05:00 AM 34.9°F1.6°C 33.3°F0.7°C 94% Calm Calm -- 30.03 in1016.9 mb - 0.00 in0.0 mm 0.00 in0.0 mm
04:50 AM 35.1°F1.7°C 33.5°F0.8°C 94% Calm Calm -- 30.03 in1016.9 mb - 0.00 in0.0 mm 0.00 in0.0 mm
04:40 AM 35.4°F1.9°C 33.8°F1.0°C 94% Calm Calm -- 30.03 in1016.9 mb - 0.00 in0.0 mm 0.00 in0.0 mm
04:30 AM 35.7°F2.1°C 33.9°F1.1°C 93% Calm Calm -- 30.02 in1016.6 mb - 0.00 in0.0 mm 0.00 in0.0 mm
04:20 AM 36.0°F2.2°C 34.2°F1.2°C 93% Calm Calm -- 30.02 in1016.6 mb - 0.00 in0.0 mm 0.00 in0.0 mm
04:10 AM 36.3°F2.4°C 34.5°F1.4°C 93% Calm Calm -- 30.02 in1016.6 mb - 0.00 in0.0 mm 0.00 in0.0 mm
04:00 AM 36.6°F2.6°C 34.8°F1.6°C 93% Calm Calm -- 30.02 in1016.6 mb - 0.00 in0.0 mm 0.00 in0.0 mm
03:50 AM 36.9°F2.7°C 35.1°F1.7°C 93% Calm Calm -- 30.01 in1016.3 mb - 0.00 in0.0 mm 0.00 in0.0 mm
03:40 AM 37.2°F2.9°C 35.4°F1.9°C 93% Calm Calm -- 30.02 in1016.6 mb - 0.00 in0.0 mm 0.00 in0.0 mm
03:30 AM 37.7°F3.2°C 35.8°F2.1°C 93% Calm Calm -- 30.02 in1016.6 mb - 0.00 in0.0 mm 0.00 in0.0 mm
03:20 AM 38.0°F3.3°C 36.2°F2.3°C 93% Calm Calm -- 30.02 in1016.6 mb - 0.00 in0.0 mm 0.00 in0.0 mm
03:10 AM 38.4°F3.6°C 36.6°F2.6°C 93% Calm Calm -- 30.02 in1016.6 mb - 0.00 in0.0 mm 0.00 in0.0 mm
03:00 AM 38.8°F3.8°C 36.6°F2.6°C 92% Calm Calm -- 30.02 in1016.6 mb - 0.00 in0.0 mm 0.00 in0.0 mm
02:50 AM 39.2°F4.0°C 37.1°F2.8°C 92% Calm Calm -- 30.01 in1016.3 mb - 0.00 in0.0 mm 0.00 in0.0 mm
02:40 AM 39.6°F4.2°C 37.5°F3.1°C 92% Calm Calm -- 30.01 in1016.3 mb - 0.00 in0.0 mm 0.00 in0.0 mm
02:30 AM 40.0°F4.4°C 37.9°F3.3°C 92% Calm Calm -- 30.01 in1016.3 mb - 0.00 in0.0 mm 0.00 in0.0 mm
02:20 AM 40.4°F4.7°C 38.2°F3.4°C 92% Calm Calm -- 30.01 in1016.3 mb - 0.00 in0.0 mm 0.00 in0.0 mm
02:10 AM 40.7°F4.8°C 38.5°F3.6°C 92% Calm Calm -- 30.01 in1016.3 mb - 0.00 in0.0 mm 0.00 in0.0 mm
02:00 AM 41.0°F5.0°C 38.9°F3.8°C 92% Calm Calm -- 30.02 in1016.6 mb - 0.00 in0.0 mm 0.00 in0.0 mm
01:50 AM 41.3°F5.2°C 39.2°F4.0°C 92% Calm Calm -- 30.01 in1016.3 mb - 0.00 in0.0 mm 0.00 in0.0 mm
01:40 AM 41.6°F5.3°C 39.4°F4.1°C 92% Calm Calm -- 30.01 in1016.3 mb - 0.00 in0.0 mm 0.00 in0.0 mm
01:30 AM 41.9°F5.5°C 39.7°F4.3°C 92% Calm Calm -- 30.01 in1016.3 mb - 0.00 in0.0 mm 0.00 in0.0 mm
01:20 AM 42.2°F5.7°C 40.3°F4.6°C 93% Calm Calm -- 30.01 in1016.3 mb - 0.00 in0.0 mm 0.00 in0.0 mm
01:10 AM 42.3°F5.7°C 40.4°F4.7°C 93% Calm Calm -- 30.02 in1016.6 mb - 0.00 in0.0 mm 0.00 in0.0 mm
01:00 AM 42.5°F5.8°C 40.6°F4.8°C 93% Calm Calm -- 30.01 in1016.3 mb - 0.00 in0.0 mm 0.00 in0.0 mm
12:50 AM 42.7°F5.9°C 40.8°F4.9°C 93% Calm Calm -- 30.01 in1016.3 mb - 0.00 in0.0 mm 0.00 in0.0 mm
12:40 AM 42.8°F6.0°C 40.9°F4.9°C 93% Calm Calm -- 30.01 in1016.3 mb - 0.00 in0.0 mm 0.00 in0.0 mm
12:30 AM 42.9°F6.1°C 41.0°F5.0°C 93% Calm Calm -- 30.00 in1015.9 mb - 0.00 in0.0 mm 0.00 in0.0 mm
12:20 AM 42.9°F6.1°C 41.0°F5.0°C 93% Calm Calm -- 30.00 in1015.9 mb - 0.00 in0.0 mm 0.00 in0.0 mm
12:10 AM 42.8°F6.0°C 40.6°F4.8°C 92% Calm Calm -- 29.98 in1015.2 mb - 0.00 in0.0 mm 0.00 in0.0 mm
12:00 AM 42.8°F6.0°C 40.6°F4.8°C 92% Calm Calm -- 29.98 in1015.2 mb - 0.00 in0.0 mm 0.00 in0.0 mm